Time;durP1;ratioP1;P1;durP2;ratioP2;P2;SDS_P1;SDS_P2;PMS_P1;PMS_P2;Temp;Humidity;BMP_temperature;BMP_pressure;BME280_temperature;BME280_humidity;BME280_pressure;Samples;Min_cycle;Max_cycle;Signal;HPM_P1;HPM_P2
2022/06/26 00:01:32;;;;;;;50.58;30.35;;;17.80;99.90;;;;;;5056700;28;20044;-79
2022/06/26 00:03:58;;;;;;;48.58;29.27;;;17.80;99.90;;;;;;5037791;28;20061;-80
2022/06/26 00:06:24;;;;;;;46.55;29.23;;;17.80;99.90;;;;;;5056588;28;20098;-80
2022/06/26 00:08:50;;;;;;;45.33;28.92;;;17.80;99.90;;;;;;5038587;28;20052;-80
2022/06/26 00:11:16;;;;;;;48.72;30.25;;;17.80;99.90;;;;;;5038844;28;20041;-79
2022/06/26 00:13:41;;;;;;;51.15;30.48;;;17.70;99.90;;;;;;5038240;28;20044;-80
2022/06/26 00:16:07;;;;;;;47.10;28.67;;;17.70;99.90;;;;;;5056455;28;20041;-79
2022/06/26 00:18:33;;;;;;;51.17;30.85;;;17.70;99.90;;;;;;5038324;28;20098;-79
2022/06/26 00:20:58;;;;;;;43.85;27.92;;;17.70;99.90;;;;;;5055772;28;20041;-80
2022/06/26 00:23:24;;;;;;;47.92;28.42;;;17.60;99.90;;;;;;5038339;28;20396;-80
2022/06/26 00:25:50;;;;;;;46.10;28.08;;;17.70;99.90;;;;;;5056314;28;20045;-80
2022/06/26 00:28:15;;;;;;;51.03;29.08;;;17.60;99.90;;;;;;5056101;28;20409;-80
2022/06/26 00:30:41;;;;;;;44.75;29.15;;;17.60;99.90;;;;;;5038369;28;20435;-80
2022/06/26 00:33:07;;;;;;;52.38;29.88;;;17.60;99.90;;;;;;5056038;28;20076;-80
2022/06/26 00:35:32;;;;;;;47.95;31.00;;;17.70;99.90;;;;;;5038091;28;20467;-80
2022/06/26 00:37:58;;;;;;;45.97;28.92;;;17.70;99.90;;;;;;5056016;28;20045;-80
2022/06/26 00:40:24;;;;;;;44.78;28.77;;;17.70;99.90;;;;;;5038215;28;20049;-80
2022/06/26 00:42:49;;;;;;;41.75;28.25;;;17.70;99.90;;;;;;5038018;28;20060;-80
2022/06/26 00:45:15;;;;;;;46.40;29.05;;;17.60;99.90;;;;;;5055559;28;20132;-80
2022/06/26 00:47:41;;;;;;;42.80;28.65;;;17.60;99.90;;;;;;5055824;28;20064;-80
2022/06/26 00:50:08;;;;;;;45.38;27.88;;;17.60;99.90;;;;;;5038141;28;20392;-80
2022/06/26 00:52:35;;;;;;;47.60;27.77;;;17.60;99.90;;;;;;5038280;28;20041;-80
2022/06/26 00:55:02;;;;;;;42.83;26.23;;;17.60;99.90;;;;;;5055605;28;20045;-80
2022/06/26 00:57:28;;;;;;;69.05;41.58;;;17.60;99.90;;;;;;5056141;28;20044;-81
2022/06/26 00:59:55;;;;;;;44.20;26.33;;;17.70;99.90;;;;;;5037855;28;20057;-80
2022/06/26 01:02:21;;;;;;;58.33;35.92;;;17.60;99.90;;;;;;5055411;28;20048;-80
2022/06/26 01:04:46;;;;;;;56.92;34.33;;;17.70;99.90;;;;;;5055384;28;20041;-81
2022/06/26 01:07:12;;;;;;;45.70;25.20;;;17.80;99.90;;;;;;5055313;28;20083;-81
2022/06/26 01:09:38;;;;;;;44.72;24.90;;;17.80;99.90;;;;;;5055397;28;20128;-80
2022/06/26 01:12:05;;;;;;;48.97;28.38;;;17.70;99.90;;;;;;5055178;28;20408;-80
2022/06/26 01:14:31;;;;;;;43.10;27.83;;;17.70;99.90;;;;;;5055471;28;20145;-80
2022/06/26 01:16:59;;;;;;;46.50;27.00;;;17.70;99.90;;;;;;5055279;28;20119;-80
2022/06/26 01:19:25;;;;;;;44.50;26.50;;;17.70;99.90;;;;;;5055452;28;20048;-80
2022/06/26 01:21:51;;;;;;;39.45;23.75;;;17.70;99.90;;;;;;5055098;28;20489;-80
2022/06/26 01:24:16;;;;;;;31.95;18.27;;;17.70;99.90;;;;;;5055094;28;20060;-80
2022/06/26 01:26:42;;;;;;;32.72;13.63;;;17.70;99.90;;;;;;5037240;28;20463;-80
2022/06/26 01:29:08;;;;;;;27.85;12.82;;;17.60;99.90;;;;;;5055045;28;20045;-80
2022/06/26 01:31:34;;;;;;;30.80;12.07;;;17.60;99.90;;;;;;5036446;28;20056;-80
2022/06/26 01:34:03;;;;;;;27.45;13.10;;;17.60;99.90;;;;;;5036782;28;20431;-80
2022/06/26 01:36:29;;;;;;;27.02;12.80;;;17.60;99.90;;;;;;5037042;28;20045;-80
2022/06/26 01:38:54;;;;;;;27.02;14.10;;;17.50;99.90;;;;;;5037246;28;20127;-80
2022/06/26 01:41:20;;;;;;;29.85;13.93;;;17.50;99.90;;;;;;5054583;28;20037;-80
2022/06/26 01:43:46;;;;;;;22.55;13.30;;;17.50;99.90;;;;;;5036829;28;20420;-80
2022/06/26 01:46:11;;;;;;;24.20;13.25;;;17.50;99.90;;;;;;5054788;28;20378;-80
2022/06/26 01:48:40;;;;;;;28.10;13.93;;;17.60;99.90;;;;;;5054727;28;20072;-80
2022/06/26 01:51:06;;;;;;;29.58;13.02;;;17.60;99.90;;;;;;5054533;28;20489;-80
2022/06/26 01:53:32;;;;;;;21.63;11.18;;;17.50;99.90;;;;;;5054461;28;20037;-80
2022/06/26 01:55:58;;;;;;;22.23;11.77;;;17.50;99.90;;;;;;5054611;28;20037;-80
2022/06/26 01:58:24;;;;;;;21.15;10.45;;;17.50;99.90;;;;;;5054736;28;20045;-81
2022/06/26 02:00:56;;;;;;;19.17;10.75;;;17.50;99.90;;;;;;5054506;28;20408;-80
2022/06/26 02:03:23;;;;;;;16.30;8.85;;;17.50;99.90;;;;;;5036760;28;20037;-80
2022/06/26 02:05:50;;;;;;;21.48;9.50;;;17.40;99.90;;;;;;5036713;28;20408;-80
2022/06/26 02:08:16;;;;;;;17.70;9.48;;;17.40;99.90;;;;;;5054263;28;20048;-80
2022/06/26 02:13:45;;;;;;;12.98;8.60;;;17.50;99.90;;;;;;5054164;28;20090;-80
2022/06/26 02:16:24;;;;;;;15.25;8.63;;;17.50;99.90;;;;;;5036324;28;20044;-79
2022/06/26 02:18:52;;;;;;;14.55;7.65;;;17.40;99.90;;;;;;5036064;28;20451;-80
2022/06/26 02:21:20;;;;;;;16.85;7.72;;;17.40;99.90;;;;;;5054118;28;20041;-80
2022/06/26 02:23:47;;;;;;;14.35;7.95;;;17.30;99.90;;;;;;5054340;28;20504;-80
2022/06/26 02:26:14;;;;;;;13.93;7.80;;;17.30;99.90;;;;;;5054019;28;20041;-81
2022/06/26 02:28:40;;;;;;;17.63;7.40;;;17.40;99.90;;;;;;5036149;28;20044;-80
2022/06/26 02:31:06;;;;;;;18.73;7.75;;;17.40;99.90;;;;;;5036310;28;20052;-80
2022/06/26 02:33:32;;;;;;;13.02;7.47;;;17.30;99.90;;;;;;5053868;28;20049;-80
2022/06/26 02:35:58;;;;;;;13.77;7.50;;;17.40;99.90;;;;;;5053907;28;20396;-79
2022/06/26 02:38:25;;;;;;;12.40;7.88;;;17.30;99.90;;;;;;5036080;28;20095;-80
2022/06/26 02:40:51;;;;;;;15.23;7.90;;;17.30;99.90;;;;;;5053837;28;20052;-80
2022/06/26 02:43:23;;;;;;;12.70;7.00;;;17.30;99.90;;;;;;5035935;28;20052;-79
2022/06/26 02:45:49;;;;;;;16.27;7.72;;;17.30;99.90;;;;;;5035488;28;20061;-79
2022/06/26 02:48:15;;;;;;;11.38;7.50;;;17.30;99.90;;;;;;5035684;28;20488;-79
2022/06/26 02:50:41;;;;;;;13.88;7.53;;;17.30;99.90;;;;;;5053714;28;20048;-79
2022/06/26 02:53:07;;;;;;;13.20;7.40;;;17.30;99.90;;;;;;5053581;28;20378;-79
2022/06/26 02:55:33;;;;;;;15.80;8.18;;;17.30;99.90;;;;;;5035915;28;20464;-79
2022/06/26 02:57:59;;;;;;;11.50;6.82;;;17.30;99.90;;;;;;5053558;28;20080;-79
2022/06/26 03:00:25;;;;;;;19.30;7.35;;;17.30;99.90;;;;;;5053498;28;20132;-79
2022/06/26 03:02:51;;;;;;;11.35;5.65;;;17.30;99.90;;;;;;5035537;28;20106;-79
2022/06/26 03:05:17;;;;;;;10.57;5.60;;;17.20;99.90;;;;;;5053543;28;20124;-79
2022/06/26 03:07:43;;;;;;;15.15;5.25;;;17.20;99.90;;;;;;5053228;28;20069;-79
2022/06/26 03:10:09;;;;;;;11.40;5.60;;;17.20;99.90;;;;;;5035510;28;20045;-79
2022/06/26 03:12:42;;;;;;;10.13;5.90;;;17.20;99.90;;;;;;5035416;28;20037;-79
2022/06/26 03:15:08;;;;;;;11.00;5.22;;;17.20;99.90;;;;;;5053164;28;20052;-79
2022/06/26 03:17:34;;;;;;;10.55;5.97;;;17.20;99.90;;;;;;5035360;28;20041;-79
2022/06/26 03:19:59;;;;;;;11.82;6.43;;;17.20;99.90;;;;;;5035289;28;20127;-79
2022/06/26 03:22:25;;;;;;;14.80;6.82;;;17.10;99.90;;;;;;5034662;28;20088;-79
2022/06/26 03:24:50;;;;;;;12.32;6.57;;;17.10;99.90;;;;;;5034474;28;20043;-79
2022/06/26 03:27:16;;;;;;;10.15;6.75;;;17.10;99.90;;;;;;5035202;28;20122;-79
2022/06/26 03:29:42;;;;;;;14.48;7.30;;;17.10;99.90;;;;;;5035197;28;20059;-79
2022/06/26 03:32:08;;;;;;;12.27;7.25;;;17.10;99.90;;;;;;5053190;28;20040;-79
2022/06/26 03:34:33;;;;;;;9.50;6.13;;;17.10;99.90;;;;;;5035115;28;20488;-79
2022/06/26 03:36:59;;;;;;;12.85;6.88;;;17.00;99.90;;;;;;5035173;28;20037;-79
2022/06/26 03:39:24;;;;;;;11.32;7.03;;;17.10;99.90;;;;;;5053168;28;20106;-79
2022/06/26 03:42:02;;;;;;;9.27;6.47;;;17.10;99.90;;;;;;5053028;28;20124;-79
2022/06/26 03:44:30;;;;;;;12.98;6.28;;;17.10;99.90;;;;;;5031548;28;20057;-79
2022/06/26 03:46:57;;;;;;;10.90;5.50;;;17.10;99.90;;;;;;5031920;28;20199;-79
2022/06/26 03:49:23;;;;;;;11.68;5.93;;;17.10;99.90;;;;;;5032936;28;20049;-79
2022/06/26 03:51:49;;;;;;;11.32;6.65;;;17.10;99.90;;;;;;5031650;28;20389;-79
2022/06/26 03:54:15;;;;;;;9.88;6.32;;;17.20;99.90;;;;;;5032847;28;20505;-79
2022/06/26 03:56:41;;;;;;;11.23;6.05;;;17.10;99.90;;;;;;5034396;28;20053;-79
2022/06/26 03:59:06;;;;;;;11.18;6.00;;;17.10;99.90;;;;;;5035313;28;20045;-79
2022/06/26 04:01:32;;;;;;;10.65;6.45;;;17.10;99.90;;;;;;5035512;28;20061;-79
2022/06/26 04:03:58;;;;;;;11.30;6.90;;;17.10;99.90;;;;;;5035345;28;20554;-79
2022/06/26 04:06:23;;;;;;;9.82;6.03;;;17.10;99.90;;;;;;5035505;28;20045;-79
2022/06/26 04:08:49;;;;;;;9.93;5.57;;;17.10;99.90;;;;;;5035154;28;20045;-79
2022/06/26 04:11:15;;;;;;;11.65;5.75;;;17.10;99.90;;;;;;5036557;28;20068;-79
2022/06/26 04:13:42;;;;;;;9.23;5.63;;;17.10;99.90;;;;;;5036239;28;20068;-79
2022/06/26 04:16:07;;;;;;;10.40;5.95;;;17.10;99.90;;;;;;5035324;28;20072;-79
2022/06/26 04:18:33;;;;;;;10.82;5.57;;;17.10;99.90;;;;;;5036483;28;20388;-79
2022/06/26 04:20:59;;;;;;;8.30;4.72;;;17.10;99.90;;;;;;5034887;28;20042;-79
2022/06/26 04:23:24;;;;;;;8.95;4.90;;;17.10;99.90;;;;;;5034903;28;20045;-79
2022/06/26 04:25:50;;;;;;;10.57;4.20;;;17.10;99.90;;;;;;5036242;28;20033;-79
2022/06/26 04:28:15;;;;;;;7.55;4.30;;;17.10;99.90;;;;;;5035033;28;20045;-79
2022/06/26 04:30:41;;;;;;;8.55;4.22;;;17.10;99.90;;;;;;5036368;28;20386;-79
2022/06/26 04:33:07;;;;;;;7.78;3.65;;;17.00;99.90;;;;;;5034629;28;20052;-79
2022/06/26 04:35:33;;;;;;;7.10;3.97;;;17.00;99.90;;;;;;5035833;28;20042;-79
2022/06/26 04:37:59;;;;;;;5.53;3.15;;;17.00;99.90;;;;;;5035862;28;20123;-79
2022/06/26 04:40:24;;;;;;;8.27;3.90;;;17.10;99.90;;;;;;5035750;28;20045;-79
2022/06/26 04:42:50;;;;;;;6.97;4.10;;;17.10;99.90;;;;;;5034518;28;20164;-79
2022/06/26 04:45:16;;;;;;;7.90;4.15;;;17.00;99.90;;;;;;5050717;28;20103;-79
2022/06/26 04:47:42;;;;;;;6.63;4.05;;;17.00;99.90;;;;;;5055826;28;20060;-79
2022/06/26 04:50:08;;;;;;;6.15;3.97;;;17.00;99.90;;;;;;5054266;28;20049;-79
2022/06/26 04:52:34;;;;;;;9.15;4.65;;;17.00;99.90;;;;;;5037798;28;20484;-79
2022/06/26 04:55:00;;;;;;;9.18;4.97;;;17.00;99.90;;;;;;5037486;28;20075;-79
2022/06/26 04:57:25;;;;;;;8.93;5.80;;;17.00;99.90;;;;;;5037885;28;20076;-79
2022/06/26 04:59:51;;;;;;;9.85;5.70;;;17.00;99.90;;;;;;5037547;28;20041;-79
2022/06/26 05:02:17;;;;;;;10.93;5.60;;;17.00;99.90;;;;;;5037385;28;20037;-79
2022/06/26 05:04:43;;;;;;;9.85;6.32;;;17.00;99.90;;;;;;5037888;28;20667;-79
2022/06/26 05:07:08;;;;;;;11.40;6.20;;;17.00;99.90;;;;;;5037227;28;20465;-79
2022/06/26 05:09:34;;;;;;;11.05;6.80;;;17.10;99.90;;;;;;5037392;28;20040;-79
2022/06/26 05:12:00;;;;;;;10.10;7.28;;;17.10;99.90;;;;;;5037349;28;20044;-79
2022/06/26 05:14:26;;;;;;;14.65;8.15;;;17.10;99.90;;;;;;5054992;28;20048;-79
2022/06/26 05:16:52;;;;;;;10.30;7.28;;;17.00;99.90;;;;;;5037249;28;20124;-79
2022/06/26 05:19:17;;;;;;;15.32;8.07;;;17.10;99.90;;;;;;5054961;28;20077;-79
2022/06/26 05:21:43;;;;;;;15.70;10.02;;;17.10;99.90;;;;;;5055058;28;20083;-79
2022/06/26 05:24:09;;;;;;;16.10;9.93;;;17.00;99.90;;;;;;5037355;28;20461;-79
2022/06/26 05:26:35;;;;;;;14.00;9.60;;;17.10;99.90;;;;;;5054993;28;20430;-79
2022/06/26 05:29:01;;;;;;;16.85;9.98;;;17.20;99.90;;;;;;5037047;28;20056;-79
2022/06/26 05:31:27;;;;;;;16.65;10.68;;;17.20;99.90;;;;;;5036933;28;20124;-79
2022/06/26 05:33:53;;;;;;;18.08;11.88;;;17.20;99.90;;;;;;5037049;28;20133;-79
2022/06/26 05:36:19;;;;;;;19.90;12.82;;;17.30;99.90;;;;;;5037014;28;20121;-79
2022/06/26 05:38:45;;;;;;;21.77;12.98;;;17.40;99.90;;;;;;5037019;28;20033;-79
2022/06/26 05:41:11;;;;;;;24.48;13.88;;;17.40;99.90;;;;;;5054819;28;20385;-79
2022/06/26 05:43:37;;;;;;;26.15;15.57;;;17.40;99.90;;;;;;5036712;28;20048;-79
2022/06/26 05:46:02;;;;;;;26.77;14.82;;;17.50;99.90;;;;;;5054693;28;20052;-79
2022/06/26 05:48:28;;;;;;;33.03;16.42;;;17.60;99.90;;;;;;5036862;28;20060;-79
2022/06/26 05:50:55;;;;;;;27.17;15.93;;;17.70;99.90;;;;;;5054310;28;20373;-79
2022/06/26 05:53:24;;;;;;;26.52;15.30;;;17.70;99.90;;;;;;5054518;28;20040;-79
2022/06/26 05:55:49;;;;;;;28.50;15.80;;;17.70;99.90;;;;;;5054487;28;20049;-79
2022/06/26 05:58:15;;;;;;;24.58;15.35;;;17.70;99.90;;;;;;5036340;28;20045;-79
2022/06/26 06:00:41;;;;;;;25.08;15.98;;;17.80;99.90;;;;;;5054427;28;20566;-79
2022/06/26 06:03:07;;;;;;;25.30;15.65;;;17.80;99.90;;;;;;5054172;28;20116;-79
2022/06/26 06:05:33;;;;;;;30.65;16.50;;;17.90;99.90;;;;;;5036161;28;20131;-79
2022/06/26 06:07:59;;;;;;;28.85;16.70;;;17.90;99.90;;;;;;5036216;28;20045;-79
2022/06/26 06:10:26;;;;;;;27.17;15.70;;;17.90;99.90;;;;;;5054323;28;20047;-79
2022/06/26 06:12:52;;;;;;;25.35;15.88;;;17.90;99.90;;;;;;5054232;28;20049;-79
2022/06/26 06:15:19;;;;;;;30.17;16.98;;;17.90;99.90;;;;;;5036114;28;20132;-79
2022/06/26 06:17:45;;;;;;;30.08;15.95;;;18.00;99.90;;;;;;5053825;28;20049;-79
2022/06/26 06:20:17;;;;;;;25.10;15.02;;;18.00;99.90;;;;;;5053980;28;20056;-79
2022/06/26 06:22:53;;;;;;;25.40;15.20;;;18.00;99.90;;;;;;5035933;28;20496;-80
2022/06/26 06:25:23;;;;;;;23.88;14.60;;;18.10;99.90;;;;;;5054012;28;20044;-79
2022/06/26 06:27:49;;;;;;;24.27;14.45;;;18.10;99.90;;;;;;5036199;28;20128;-80
2022/06/26 06:30:15;;;;;;;29.08;14.35;;;18.10;99.90;;;;;;5053819;28;20044;-79
2022/06/26 06:32:42;;;;;;;24.63;13.95;;;18.10;99.90;;;;;;5053841;28;20044;-79
2022/06/26 06:35:13;;;;;;;28.73;14.25;;;18.00;99.90;;;;;;5053501;28;20488;-80
2022/06/26 06:37:43;;;;;;;23.73;12.55;;;18.10;99.90;;;;;;5054017;28;20045;-80
2022/06/26 06:40:11;;;;;;;19.27;12.63;;;18.20;99.90;;;;;;5035934;28;20111;-79
2022/06/26 06:42:37;;;;;;;17.02;9.85;;;18.20;99.90;;;;;;5053720;28;20094;-80
2022/06/26 06:45:03;;;;;;;15.65;9.88;;;18.30;99.90;;;;;;5053251;28;20045;-79
2022/06/26 06:47:29;;;;;;;16.98;10.85;;;18.30;99.90;;;;;;5053473;28;20045;-79
2022/06/26 06:49:55;;;;;;;11.45;7.13;;;18.20;99.90;;;;;;5053677;28;20041;-80
2022/06/26 06:52:21;;;;;;;12.88;6.35;;;18.10;99.90;;;;;;5053500;28;20045;-77
2022/06/26 06:54:46;;;;;;;11.90;6.30;;;18.00;99.90;;;;;;5053471;28;20045;-79
2022/06/26 06:57:12;;;;;;;14.70;6.82;;;17.90;99.90;;;;;;5035569;28;20052;-80
2022/06/26 06:59:37;;;;;;;10.75;5.10;;;18.00;99.90;;;;;;5053269;28;20037;-79
2022/06/26 07:02:03;;;;;;;10.52;5.35;;;18.00;99.90;;;;;;5035347;28;20127;-79
2022/06/26 07:04:29;;;;;;;11.77;5.25;;;17.90;99.90;;;;;;5064138;28;20045;-79
2022/06/26 07:06:55;;;;;;;10.48;5.25;;;17.90;99.90;;;;;;5053245;28;20052;-79
2022/06/26 07:09:21;;;;;;;9.25;5.55;;;17.90;99.90;;;;;;5035774;28;20122;-79
2022/06/26 07:11:47;;;;;;;11.88;5.70;;;17.90;99.90;;;;;;5053118;28;20084;-80
2022/06/26 07:14:13;;;;;;;13.77;5.10;;;17.80;99.90;;;;;;5052807;28;20468;-78
2022/06/26 07:16:39;;;;;;;10.38;5.20;;;17.80;99.90;;;;;;5052951;28;20127;-78
2022/06/26 07:19:04;;;;;;;10.93;5.03;;;18.00;99.90;;;;;;5052866;28;20049;-78
2022/06/26 07:21:30;;;;;;;10.65;4.95;;;18.00;99.90;;;;;;5053120;28;20041;-78
2022/06/26 07:24:19;;;;;;;9.02;4.88;;;18.00;99.90;;;;;;5052704;28;20037;-79
2022/06/26 07:27:20;;;;;;;11.90;5.47;;;18.00;99.90;;;;;;5034835;28;20052;-79
2022/06/26 07:29:45;;;;;;;9.20;5.35;;;18.10;99.90;;;;;;5035341;28;20111;-78
2022/06/26 07:32:11;;;;;;;10.88;5.40;;;18.40;99.90;;;;;;5056831;28;20489;-76
2022/06/26 07:34:37;;;;;;;9.88;4.95;;;18.70;99.90;;;;;;5038813;28;20093;-76
2022/06/26 07:37:02;;;;;;;10.40;4.82;;;18.90;99.90;;;;;;5038906;28;20045;-76
2022/06/26 07:39:28;;;;;;;10.35;4.95;;;19.10;99.90;;;;;;5038663;28;20076;-76
2022/06/26 07:41:54;;;;;;;9.80;4.63;;;19.10;99.90;;;;;;5056644;28;20045;-76
2022/06/26 07:44:19;;;;;;;9.43;4.75;;;19.40;99.90;;;;;;5056349;28;20492;-76
2022/06/26 07:46:45;;;;;;;12.63;5.03;;;19.70;99.90;;;;;;5056808;28;20052;-76
2022/06/26 07:49:12;;;;;;;11.20;5.00;;;19.70;99.90;;;;;;5038634;28;20040;-76
2022/06/26 07:51:38;;;;;;;11.88;5.18;;;19.90;99.90;;;;;;5056741;28;20045;-76
2022/06/26 07:54:04;;;;;;;7.68;4.53;;;20.00;99.90;;;;;;5056290;28;20052;-79
2022/06/26 07:56:30;;;;;;;10.43;5.50;;;20.10;99.90;;;;;;5038441;28;20398;-78
2022/06/26 07:58:56;;;;;;;10.38;5.63;;;20.40;99.90;;;;;;5038481;28;20049;-78
2022/06/26 08:01:22;;;;;;;11.52;4.82;;;20.80;99.90;;;;;;5056353;28;20095;-78
2022/06/26 08:03:48;;;;;;;9.40;5.13;;;20.90;99.90;;;;;;5056387;28;20112;-78
2022/06/26 08:06:14;;;;;;;9.60;5.20;;;21.20;99.90;;;;;;5056186;28;20059;-77
2022/06/26 08:08:39;;;;;;;10.13;5.47;;;21.10;99.90;;;;;;5056119;28;20131;-79
2022/06/26 08:11:05;;;;;;;8.80;5.90;;;20.90;99.90;;;;;;5038233;28;20044;-78
2022/06/26 08:13:31;;;;;;;14.13;6.32;;;20.90;99.90;;;;;;5070416;28;20037;-78
2022/06/26 08:15:57;;;;;;;8.95;6.03;;;20.80;99.90;;;;;;5075989;28;20079;-79
2022/06/26 08:18:22;;;;;;;12.40;6.28;;;21.00;99.90;;;;;;5075979;28;20048;-79
2022/06/26 08:20:48;;;;;;;10.30;5.00;;;21.10;99.90;;;;;;5074949;28;20479;-78
2022/06/26 08:23:14;;;;;;;10.25;5.40;;;21.20;99.90;;;;;;5075733;28;20047;-78
2022/06/26 08:25:40;;;;;;;10.50;5.60;;;21.30;99.90;;;;;;5074551;28;20450;-78
2022/06/26 08:28:06;;;;;;;10.43;4.90;;;21.30;99.90;;;;;;5074578;28;20480;-79
2022/06/26 08:30:32;;;;;;;10.80;6.05;;;21.40;99.90;;;;;;5076110;28;20102;-78
2022/06/26 08:32:58;;;;;;;10.02;6.38;;;21.20;99.90;;;;;;5076010;28;20044;-78
2022/06/26 08:35:28;;;;;;;12.15;7.88;;;21.10;99.90;;;;;;5074677;28;20040;-78
2022/06/26 08:37:54;;;;;;;13.18;8.35;;;20.80;99.90;;;;;;5076161;28;20063;-78
2022/06/26 08:40:21;;;;;;;13.10;9.02;;;20.60;99.90;;;;;;5069520;28;20488;-78
2022/06/26 08:42:49;;;;;;;15.38;8.98;;;20.60;99.90;;;;;;5068635;28;20040;-78
2022/06/26 08:45:18;;;;;;;13.20;8.65;;;20.50;99.90;;;;;;5069089;28;20385;-78
2022/06/26 08:47:47;;;;;;;15.65;8.70;;;20.40;99.90;;;;;;5064425;28;20045;-78
2022/06/26 08:50:13;;;;;;;16.17;10.15;;;20.30;99.90;;;;;;5066088;28;20099;-78
2022/06/26 08:52:43;;;;;;;12.57;8.90;;;20.20;99.90;;;;;;5067719;28;20044;-78
2022/06/26 08:55:09;;;;;;;13.00;7.82;;;20.50;99.90;;;;;;5050893;28;20479;-78
2022/06/26 08:57:36;;;;;;;14.70;7.45;;;20.90;99.90;;;;;;5067541;28;20040;-78
2022/06/26 09:00:04;;;;;;;14.55;8.23;;;21.30;99.90;;;;;;5046486;28;20107;-79
2022/06/26 09:02:29;;;;;;;17.70;7.90;;;21.80;99.90;;;;;;5048096;28;20033;-78
2022/06/26 09:04:56;;;;;;;12.80;7.28;;;22.10;99.90;;;;;;5046775;28;20512;-79
2022/06/26 09:07:22;;;;;;;11.95;6.63;;;22.40;99.90;;;;;;5048088;28;20129;-78
2022/06/26 09:09:48;;;;;;;10.15;5.60;;;22.40;99.90;;;;;;5056126;28;20040;-78
2022/06/26 09:12:13;;;;;;;10.63;6.63;;;22.40;99.90;;;;;;5056788;28;20095;-79
2022/06/26 09:14:39;;;;;;;10.00;4.97;;;22.60;99.90;;;;;;5075066;28;20048;-78
2022/06/26 09:17:05;;;;;;;8.40;4.40;;;23.00;99.90;;;;;;5075086;28;20086;-79
2022/06/26 09:19:36;;;;;;;8.13;4.15;;;23.10;99.90;;;;;;5074612;28;20044;-79
2022/06/26 09:22:08;;;;;;;5.93;3.60;;;22.90;99.90;;;;;;5074472;28;20036;-78
2022/06/26 09:24:36;;;;;;;6.15;3.63;;;22.50;99.90;;;;;;5067518;28;20045;-79
2022/06/26 09:27:14;;;;;;;7.03;3.20;;;22.40;99.90;;;;;;5056984;28;20454;-79
2022/06/26 09:29:41;;;;;;;5.22;3.40;;;22.60;99.90;;;;;;5074829;28;20043;-78
2022/06/26 09:32:14;;;;;;;5.68;3.80;;;23.00;99.90;;;;;;5056797;28;20381;-78
2022/06/26 09:34:51;;;;;;;7.00;3.85;;;23.20;99.90;;;;;;5074948;28;20037;-79
2022/06/26 09:37:18;;;;;;;5.05;4.00;;;22.90;99.90;;;;;;5056490;28;20079;-78
2022/06/26 09:39:44;;;;;;;9.25;4.85;;;22.70;99.90;;;;;;5056450;28;20051;-79
2022/06/26 09:42:18;;;;;;;6.35;4.30;;;22.50;99.90;;;;;;5055987;28;20048;-79
2022/06/26 09:44:54;;;;;;;9.07;4.43;;;22.60;99.90;;;;;;5060384;28;20063;-78
2022/06/26 09:47:28;;;;;;;11.02;4.07;;;22.50;99.90;;;;;;5074357;28;20051;-78
2022/06/26 09:49:56;;;;;;;7.75;4.53;;;22.50;99.90;;;;;;5057028;28;20072;-78
2022/06/26 09:52:24;;;;;;;8.43;5.30;;;22.30;99.90;;;;;;5064609;28;20052;-79
2022/06/26 09:54:50;;;;;;;9.15;5.25;;;22.30;99.90;;;;;;5073565;28;20059;-78
2022/06/26 09:57:16;;;;;;;9.45;4.90;;;22.30;99.90;;;;;;5074277;28;20119;-79
2022/06/26 09:59:41;;;;;;;11.48;4.68;;;22.40;99.90;;;;;;5072830;28;20472;-79
2022/06/26 10:07:49;;;;;;;9.02;3.70;;;22.90;99.90;;;;;;5074076;28;20052;-80
2022/06/26 10:10:19;;;;;;;8.02;3.90;;;23.10;99.90;;;;;;5073463;28;20052;-79
2022/06/26 10:12:48;;;;;;;8.43;4.47;;;23.30;99.90;;;;;;5064329;28;20041;-79
2022/06/26 10:15:16;;;;;;;9.57;4.13;;;23.30;99.90;;;;;;5063057;28;20055;-79
2022/06/26 10:18:02;;;;;;;8.80;4.57;;;23.60;99.90;;;;;;5073637;28;20488;-79
2022/06/26 10:20:29;;;;;;;6.88;3.85;;;23.60;99.90;;;;;;5073682;28;20500;-79
2022/06/26 10:22:55;;;;;;;10.65;4.55;;;23.50;99.90;;;;;;5056118;28;20066;-79
2022/06/26 10:25:23;;;;;;;7.32;3.72;;;23.20;99.90;;;;;;5055591;28;20040;-79
2022/06/26 10:27:49;;;;;;;8.27;3.60;;;23.00;99.90;;;;;;5046870;28;20047;-79
2022/06/26 10:30:18;;;;;;;9.23;4.07;;;22.90;99.90;;;;;;5073257;28;20041;-80
2022/06/26 10:32:44;;;;;;;8.35;3.50;;;22.90;99.90;;;;;;5073548;28;20446;-79
2022/06/26 10:35:11;;;;;;;9.10;3.25;;;23.00;99.90;;;;;;5073388;28;20040;-80
2022/06/26 10:37:49;;;;;;;5.53;3.25;;;22.90;99.90;;;;;;5073881;28;20094;-80
2022/06/26 10:43:15;;;;;;;5.10;3.08;;;23.10;99.90;;;;;;5060448;28;20091;-78
2022/06/26 10:45:41;;;;;;;5.38;2.83;;;23.10;99.90;;;;;;5071926;28;20063;-79
2022/06/26 10:48:18;;;;;;;5.28;2.55;;;23.10;99.90;;;;;;5072007;28;20139;-79
2022/06/26 10:50:54;;;;;;;4.10;2.80;;;23.20;99.90;;;;;;5073348;28;20045;-79
2022/06/26 10:53:25;;;;;;;5.10;2.53;;;23.20;99.90;;;;;;5073435;28;20124;-79
2022/06/26 10:55:55;;;;;;;5.82;2.80;;;23.40;99.90;;;;;;5073154;28;20499;-78
2022/06/26 10:58:35;;;;;;;4.13;2.70;;;23.70;99.90;;;;;;5072021;28;20086;-79
2022/06/26 11:01:04;;;;;;;7.78;3.13;;;23.60;99.90;;;;;;5073302;28;20052;-78
2022/06/26 11:03:31;;;;;;;5.93;3.13;;;23.50;99.90;;;;;;5073031;28;20044;-78
2022/06/26 11:06:04;;;;;;;10.88;4.72;;;23.60;99.90;;;;;;5071795;28;20076;-78
2022/06/26 11:08:32;;;;;;;9.82;4.72;;;23.80;99.90;;;;;;5072063;28;20041;-79
2022/06/26 11:11:17;;;;;;;9.95;4.78;;;23.80;99.90;;;;;;5072900;28;20041;-78
2022/06/26 11:13:58;;;;;;;7.43;4.85;;;23.90;99.90;;;;;;5064867;28;20049;-78
2022/06/26 11:16:31;;;;;;;10.60;5.20;;;23.90;99.90;;;;;;5054986;28;20449;-78
2022/06/26 11:18:58;;;;;;;8.38;4.80;;;23.90;99.90;;;;;;5055065;28;20045;-78
2022/06/26 11:21:26;;;;;;;10.02;5.10;;;23.70;99.90;;;;;;5073097;28;20071;-78
2022/06/26 11:23:53;;;;;;;10.65;5.90;;;23.60;99.90;;;;;;5072849;28;20514;-78
2022/06/26 11:26:21;;;;;;;9.57;5.18;;;23.60;99.90;;;;;;5054920;28;20083;-79
2022/06/26 11:28:54;;;;;;;8.40;5.82;;;23.30;99.90;;;;;;5073143;28;20048;-79
2022/06/26 11:31:22;;;;;;;9.05;5.05;;;23.20;99.90;;;;;;5072950;28;20048;-80
2022/06/26 11:33:48;;;;;;;10.30;5.72;;;23.40;99.90;;;;;;5072925;28;20052;-79
2022/06/26 11:36:16;;;;;;;10.10;5.68;;;23.50;99.90;;;;;;5073046;28;20093;-79
2022/06/26 11:38:54;;;;;;;9.07;5.38;;;23.50;99.90;;;;;;5072838;28;20099;-79
2022/06/26 11:41:22;;;;;;;10.02;5.30;;;23.30;99.90;;;;;;5054246;28;20127;-79
2022/06/26 11:43:53;;;;;;;7.53;4.88;;;23.30;99.90;;;;;;5066155;28;20064;-79
2022/06/26 11:46:19;;;;;;;9.63;5.05;;;23.40;99.90;;;;;;5072783;28;20052;-79
2022/06/26 11:48:48;;;;;;;11.38;5.22;;;23.40;99.90;;;;;;5072948;28;20044;-79
2022/06/26 11:51:13;;;;;;;8.25;5.30;;;23.20;99.90;;;;;;5072754;28;20048;-79
2022/06/26 11:53:46;;;;;;;9.93;4.55;;;23.20;99.90;;;;;;5046925;28;20106;-79
2022/06/26 11:56:17;;;;;;;;;;;23.20;99.90;;;;;;5073032;28;20547;-79
2022/06/26 11:58:46;;;;;;;9.80;4.78;;;23.20;99.90;;;;;;5055228;28;19960;-79
2022/06/26 12:01:13;;;;;;;7.63;4.38;;;23.10;99.90;;;;;;5072242;28;20511;-79
2022/06/26 12:03:48;;;;;;;10.43;4.45;;;23.20;99.90;;;;;;5054857;28;20048;-78
2022/06/26 12:06:28;;;;;;;8.95;4.57;;;23.20;99.90;;;;;;5054620;28;20060;-79
2022/06/26 12:08:53;;;;;;;7.18;4.20;;;23.20;99.90;;;;;;5054800;28;20033;-79
2022/06/26 12:11:19;;;;;;;11.25;4.80;;;23.10;99.90;;;;;;5054744;28;20152;-79
2022/06/26 12:13:47;;;;;;;8.55;3.92;;;23.10;99.90;;;;;;5059864;28;20044;-78
2022/06/26 12:16:14;;;;;;;8.48;4.03;;;23.10;99.90;;;;;;5071716;28;20534;-77
2022/06/26 12:18:41;;;;;;;8.00;4.00;;;23.30;99.90;;;;;;5076195;28;20092;-78
2022/06/26 12:21:22;;;;;;;9.30;3.63;;;23.50;99.90;;;;;;5075932;28;20048;-79
2022/06/26 12:23:49;;;;;;;9.73;4.13;;;23.60;99.90;;;;;;5075932;28;20522;-78
2022/06/26 12:26:20;;;;;;;7.38;3.92;;;23.50;99.90;;;;;;5076127;28;20052;-79
2022/06/26 12:28:47;;;;;;;11.27;3.72;;;23.40;99.90;;;;;;5074826;28;20048;-79
2022/06/26 12:31:14;;;;;;;9.98;3.83;;;23.50;99.90;;;;;;5074562;28;20056;-80
2022/06/26 12:33:39;;;;;;;11.73;4.30;;;23.40;99.90;;;;;;5074410;28;20177;-79
2022/06/26 12:36:06;;;;;;;7.65;3.63;;;23.60;99.90;;;;;;5074541;28;20131;-78
2022/06/26 12:38:37;;;;;;;12.70;3.85;;;23.60;99.90;;;;;;5074561;28;20049;-79
2022/06/26 12:41:05;;;;;;;7.20;3.80;;;23.50;99.90;;;;;;5075344;28;20048;-78
2022/06/26 12:43:31;;;;;;;6.97;3.90;;;23.30;99.90;;;;;;5062558;28;20298;-79
2022/06/26 12:45:57;;;;;;;7.97;3.58;;;23.10;99.90;;;;;;5055456;28;20056;-79
2022/06/26 12:48:23;;;;;;;9.35;3.97;;;23.00;99.90;;;;;;5056306;28;20051;-80
2022/06/26 12:50:48;;;;;;;14.45;3.78;;;22.90;99.90;;;;;;5057394;28;20048;-80